sensor_id;sensor_type;location;lat;lon;timestamp;pressure;altitude;pressure_sealevel;temperature;humidity
68137;BME280;54939;50.826;9.030;2022-11-20T00:00:00;98271.47;;;8.34;58.32
68137;BME280;54939;50.826;9.030;2022-11-20T00:00:30;98272.59;;;8.32;57.78
68137;BME280;54939;50.826;9.030;2022-11-20T00:01:07;98266.44;;;8.31;58.55
68137;BME280;54939;50.826;9.030;2022-11-20T00:01:38;98269.78;;;8.33;57.78
68137;BME280;54939;50.826;9.030;2022-11-20T00:02:08;98270.63;;;8.34;57.74
68137;BME280;54939;50.826;9.030;2022-11-20T00:02:38;98266.97;;;8.35;57.86
68137;BME280;54939;50.826;9.030;2022-11-20T00:03:08;98270.63;;;8.34;58.47
68137;BME280;54939;50.826;9.030;2022-11-20T00:03:39;98266.97;;;8.35;58.29
68137;BME280;54939;50.826;9.030;2022-11-20T00:04:10;98260.81;;;8.34;58.21
68137;BME280;54939;50.826;9.030;2022-11-20T00:04:41;98273.41;;;8.32;58.33
68137;BME280;54939;50.826;9.030;2022-11-20T00:05:11;98263.63;;;8.33;57.86
68137;BME280;54939;50.826;9.030;2022-11-20T00:05:41;98266.97;;;8.35;58.07
68137;BME280;54939;50.826;9.030;2022-11-20T00:06:12;98264.47;;;8.33;58.11
68137;BME280;54939;50.826;9.030;2022-11-20T00:06:43;98260.13;;;8.32;58.50
68137;BME280;54939;50.826;9.030;2022-11-20T00:07:13;98261.09;;;8.31;58.16
68137;BME280;54939;50.826;9.030;2022-11-20T00:07:43;98261.09;;;8.31;58.14
68137;BME280;54939;50.826;9.030;2022-11-20T00:08:13;98257.75;;;8.29;57.96
68137;BME280;54939;50.826;9.030;2022-11-20T00:08:44;98263.06;;;8.29;58.06
68137;BME280;54939;50.826;9.030;2022-11-20T00:09:14;98258.72;;;8.28;58.06
68137;BME280;54939;50.826;9.030;2022-11-20T00:09:44;98255.94;;;8.29;58.02
68137;BME280;54939;50.826;9.030;2022-11-20T00:10:15;98256.91;;;8.28;58.24
68137;BME280;54939;50.826;9.030;2022-11-20T00:10:45;98254.06;;;8.30;58.47
68137;BME280;54939;50.826;9.030;2022-11-20T00:11:19;98261.25;;;8.29;57.94
68137;BME280;54939;50.826;9.030;2022-11-20T00:11:49;98263.06;;;8.29;57.98
68137;BME280;54939;50.826;9.030;2022-11-20T00:12:19;98255.78;;;8.31;58.38
68137;BME280;54939;50.826;9.030;2022-11-20T00:12:50;98255.78;;;8.31;58.73
68137;BME280;54939;50.826;9.030;2022-11-20T00:13:20;98264.59;;;8.32;58.54
68137;BME280;54939;50.826;9.030;2022-11-20T00:13:51;98260.13;;;8.32;58.12
68137;BME280;54939;50.826;9.030;2022-11-20T00:14:21;98255.78;;;8.31;58.55
68137;BME280;54939;50.826;9.030;2022-11-20T00:14:51;98263.63;;;8.33;58.61
68137;BME280;54939;50.826;9.030;2022-11-20T00:15:22;98265.59;;;8.30;58.32
68137;BME280;54939;50.826;9.030;2022-11-20T00:15:56;98263.75;;;8.31;58.07
68137;BME280;54939;50.826;9.030;2022-11-20T00:16:27;98264.72;;;8.30;57.89
68137;BME280;54939;50.826;9.030;2022-11-20T00:16:57;98271.03;;;8.29;58.31
68137;BME280;54939;50.826;9.030;2022-11-20T00:17:27;98264.72;;;8.30;57.90
68137;BME280;54939;50.826;9.030;2022-11-20T00:17:58;98271.75;;;8.31;58.37
68137;BME280;54939;50.826;9.030;2022-11-20T00:18:28;98267.53;;;8.28;57.73
68137;BME280;54939;50.826;9.030;2022-11-20T00:18:58;98259.41;;;8.30;57.94
68137;BME280;54939;50.826;9.030;2022-11-20T00:19:28;98259.56;;;8.28;57.67
68137;BME280;54939;50.826;9.030;2022-11-20T00:19:58;98251.88;;;8.25;57.89
68137;BME280;54939;50.826;9.030;2022-11-20T00:20:29;98262.50;;;8.25;58.42
68137;BME280;54939;50.826;9.030;2022-11-20T00:21:03;98259.16;;;8.23;58.01
68137;BME280;54939;50.826;9.030;2022-11-20T00:21:33;98264.66;;;8.22;58.08
68137;BME280;54939;50.826;9.030;2022-11-20T00:22:04;98264.34;;;8.25;57.85
68137;BME280;54939;50.826;9.030;2022-11-20T00:22:34;98254.69;;;8.24;57.63
68137;BME280;54939;50.826;9.030;2022-11-20T00:23:04;98258.03;;;8.26;57.57
68137;BME280;54939;50.826;9.030;2022-11-20T00:23:35;98255.53;;;8.24;58.68
68137;BME280;54939;50.826;9.030;2022-11-20T00:24:07;98258.88;;;8.26;58.06
68137;BME280;54939;50.826;9.030;2022-11-20T00:24:38;98263.34;;;8.26;58.04
68137;BME280;54939;50.826;9.030;2022-11-20T00:25:08;98263.50;;;8.24;57.59
68137;BME280;54939;50.826;9.030;2022-11-20T00:25:38;98262.50;;;8.25;58.20
68137;BME280;54939;50.826;9.030;2022-11-20T00:26:10;98259.16;;;8.23;58.51
68137;BME280;54939;50.826;9.030;2022-11-20T00:26:41;98248.53;;;8.23;58.54
68137;BME280;54939;50.826;9.030;2022-11-20T00:27:11;98251.34;;;8.22;57.68
68137;BME280;54939;50.826;9.030;2022-11-20T00:27:41;98249.53;;;8.22;58.13
68137;BME280;54939;50.826;9.030;2022-11-20T00:28:11;98251.88;;;8.25;58.00
68137;BME280;54939;50.826;9.030;2022-11-20T00:28:42;98251.88;;;8.25;58.66
68137;BME280;54939;50.826;9.030;2022-11-20T00:29:12;98259.34;;;8.22;57.76
68137;BME280;54939;50.826;9.030;2022-11-20T00:29:42;98255.00;;;8.21;58.27
68137;BME280;54939;50.826;9.030;2022-11-20T00:30:13;98250.06;;;8.26;58.38
68137;BME280;54939;50.826;9.030;2022-11-20T00:30:43;98250.19;;;8.24;57.79
68137;BME280;54939;50.826;9.030;2022-11-20T00:31:14;98248.53;;;8.23;58.21
68137;BME280;54939;50.826;9.030;2022-11-20T00:31:44;98250.53;;;8.21;57.46
68137;BME280;54939;50.826;9.030;2022-11-20T00:32:15;98252.19;;;8.22;58.28
68137;BME280;54939;50.826;9.030;2022-11-20T00:32:45;98252.84;;;8.24;58.09
68137;BME280;54939;50.826;9.030;2022-11-20T00:33:15;98252.03;;;8.24;58.64
68137;BME280;54939;50.826;9.030;2022-11-20T00:33:45;98249.53;;;8.22;58.15
68137;BME280;54939;50.826;9.030;2022-11-20T00:34:15;98245.88;;;8.23;58.32
68137;BME280;54939;50.826;9.030;2022-11-20T00:34:46;98244.38;;;8.21;58.58
68137;BME280;54939;50.826;9.030;2022-11-20T00:35:16;98244.38;;;8.21;58.22
68137;BME280;54939;50.826;9.030;2022-11-20T00:35:46;98247.03;;;8.21;58.24
68137;BME280;54939;50.826;9.030;2022-11-20T00:36:17;98248.84;;;8.20;57.57
68137;BME280;54939;50.826;9.030;2022-11-20T00:36:48;98251.19;;;8.23;58.42
68137;BME280;54939;50.826;9.030;2022-11-20T00:37:18;98253.84;;;8.23;57.92
68137;BME280;54939;50.826;9.030;2022-11-20T00:37:48;98255.84;;;8.21;57.90
68137;BME280;54939;50.826;9.030;2022-11-20T00:38:18;98254.16;;;8.20;58.14
68137;BME280;54939;50.826;9.030;2022-11-20T00:38:52;98252.19;;;8.22;57.81
68137;BME280;54939;50.826;9.030;2022-11-20T00:39:22;98254.69;;;8.24;57.78
68137;BME280;54939;50.826;9.030;2022-11-20T00:39:53;98250.53;;;8.21;58.37
68137;BME280;54939;50.826;9.030;2022-11-20T00:40:23;98250.53;;;8.21;58.07
68137;BME280;54939;50.826;9.030;2022-11-20T00:41:00;98255.16;;;8.19;58.17
68137;BME280;54939;50.826;9.030;2022-11-20T00:41:30;98246.19;;;8.20;57.92
68137;BME280;54939;50.826;9.030;2022-11-20T00:42:01;98252.47;;;8.19;57.71
68137;BME280;54939;50.826;9.030;2022-11-20T00:42:31;98249.69;;;8.21;58.08
68137;BME280;54939;50.826;9.030;2022-11-20T00:43:02;98254.16;;;8.20;58.29
68137;BME280;54939;50.826;9.030;2022-11-20T00:43:33;98245.22;;;8.21;58.13
68137;BME280;54939;50.826;9.030;2022-11-20T00:44:03;98252.34;;;8.21;58.55
68137;BME280;54939;50.826;9.030;2022-11-20T00:44:34;98254.16;;;8.20;58.27
68137;BME280;54939;50.826;9.030;2022-11-20T00:45:04;98249.69;;;8.21;58.47
68137;BME280;54939;50.826;9.030;2022-11-20T00:45:34;98251.66;;;8.19;58.40
68137;BME280;54939;50.826;9.030;2022-11-20T00:46:06;98256.13;;;8.18;58.18
68137;BME280;54939;50.826;9.030;2022-11-20T00:46:36;98246.31;;;8.19;58.79
68137;BME280;54939;50.826;9.030;2022-11-20T00:47:07;98246.31;;;8.19;59.29
68137;BME280;54939;50.826;9.030;2022-11-20T00:47:37;98241.56;;;8.22;58.93
68137;BME280;54939;50.826;9.030;2022-11-20T00:48:07;98244.38;;;8.21;58.54
68137;BME280;54939;50.826;9.030;2022-11-20T00:48:37;98240.88;;;8.20;58.07
68137;BME280;54939;50.826;9.030;2022-11-20T00:49:07;98243.53;;;8.20;57.89
68137;BME280;54939;50.826;9.030;2022-11-20T00:49:38;98242.84;;;8.18;58.54
68137;BME280;54939;50.826;9.030;2022-11-20T00:50:08;98245.50;;;8.18;58.52
68137;BME280;54939;50.826;9.030;2022-11-20T00:50:38;98244.66;;;8.18;58.54
68137;BME280;54939;50.826;9.030;2022-11-20T00:51:09;98252.47;;;8.19;58.59
68137;BME280;54939;50.826;9.030;2022-11-20T00:51:41;98252.47;;;8.19;58.46
68137;BME280;54939;50.826;9.030;2022-11-20T00:52:11;98254.31;;;8.19;58.57
68137;BME280;54939;50.826;9.030;2022-11-20T00:52:41;98257.81;;;8.19;58.80
68137;BME280;54939;50.826;9.030;2022-11-20T00:53:11;98244.66;;;8.18;58.40
68137;BME280;54939;50.826;9.030;2022-11-20T00:53:42;98248.28;;;8.17;58.28
68137;BME280;54939;50.826;9.030;2022-11-20T00:54:12;98253.59;;;8.17;59.04
68137;BME280;54939;50.826;9.030;2022-11-20T00:54:42;98247.16;;;8.19;58.89
68137;BME280;54939;50.826;9.030;2022-11-20T00:55:12;98253.31;;;8.20;58.38
68137;BME280;54939;50.826;9.030;2022-11-20T00:55:43;98249.13;;;8.17;58.32
68137;BME280;54939;50.826;9.030;2022-11-20T00:56:14;98249.31;;;8.16;58.46
68137;BME280;54939;50.826;9.030;2022-11-20T00:56:44;98245.81;;;8.15;58.62
68137;BME280;54939;50.826;9.030;2022-11-20T00:57:15;98243.16;;;8.15;58.83
68137;BME280;54939;50.826;9.030;2022-11-20T00:57:45;98245.81;;;8.15;58.35
68137;BME280;54939;50.826;9.030;2022-11-20T00:58:15;98237.00;;;8.15;58.63
68137;BME280;54939;50.826;9.030;2022-11-20T00:58:46;98237.84;;;8.15;58.37
68137;BME280;54939;50.826;9.030;2022-11-20T00:59:16;98233.19;;;8.17;58.38
68137;BME280;54939;50.826;9.030;2022-11-20T00:59:47;98232.19;;;8.18;58.70
68137;BME280;54939;50.826;9.030;2022-11-20T01:00:17;98236.69;;;8.18;58.66
68137;BME280;54939;50.826;9.030;2022-11-20T01:00:48;98234.00;;;8.18;58.20
68137;BME280;54939;50.826;9.030;2022-11-20T01:01:20;98232.34;;;8.17;58.48
68137;BME280;54939;50.826;9.030;2022-11-20T01:01:51;98238.66;;;8.16;59.14
68137;BME280;54939;50.826;9.030;2022-11-20T01:02:21;98235.16;;;8.15;58.39
68137;BME280;54939;50.826;9.030;2022-11-20T01:02:51;98234.34;;;8.15;58.52
68137;BME280;54939;50.826;9.030;2022-11-20T01:03:22;98242.97;;;8.17;58.08
68137;BME280;54939;50.826;9.030;2022-11-20T01:03:53;98235.16;;;8.15;58.46
68137;BME280;54939;50.826;9.030;2022-11-20T01:04:23;98237.84;;;8.15;58.79
68137;BME280;54939;50.826;9.030;2022-11-20T01:04:53;98244.97;;;8.15;58.58
68137;BME280;54939;50.826;9.030;2022-11-20T01:05:23;98242.13;;;8.16;58.25
68137;BME280;54939;50.826;9.030;2022-11-20T01:05:53;98249.13;;;8.17;58.22
68137;BME280;54939;50.826;9.030;2022-11-20T01:06:28;98241.31;;;8.16;57.66
68137;BME280;54939;50.826;9.030;2022-11-20T01:06:59;98237.00;;;8.15;58.16
68137;BME280;54939;50.826;9.030;2022-11-20T01:07:29;98236.81;;;8.16;58.96
68137;BME280;54939;50.826;9.030;2022-11-20T01:07:59;98235.84;;;8.17;59.18
68137;BME280;54939;50.826;9.030;2022-11-20T01:08:30;98231.34;;;8.18;58.76
68137;BME280;54939;50.826;9.030;2022-11-20T01:09:57;98235.69;;;8.19;58.35
68137;BME280;54939;50.826;9.030;2022-11-20T01:10:28;98230.38;;;8.19;58.58
68137;BME280;54939;50.826;9.030;2022-11-20T01:11:02;98227.03;;;8.17;58.69
68137;BME280;54939;50.826;9.030;2022-11-20T01:11:38;98234.16;;;8.16;58.89
68137;BME280;54939;50.826;9.030;2022-11-20T01:12:08;98229.03;;;8.15;59.31
68137;BME280;54939;50.826;9.030;2022-11-20T01:12:41;98236.00;;;8.16;59.08
68137;BME280;54939;50.826;9.030;2022-11-20T01:13:12;98231.69;;;8.15;58.78
68137;BME280;54939;50.826;9.030;2022-11-20T01:14:01;98230.00;;;8.14;59.42
68137;BME280;54939;50.826;9.030;2022-11-20T01:14:32;98232.66;;;8.14;58.92
68137;BME280;54939;50.826;9.030;2022-11-20T01:15:02;98228.31;;;8.13;58.79
68137;BME280;54939;50.826;9.030;2022-11-20T01:15:33;98235.16;;;8.15;58.86
68137;BME280;54939;50.826;9.030;2022-11-20T01:16:04;98228.19;;;8.14;59.34
68137;BME280;54939;50.826;9.030;2022-11-20T01:16:35;98229.84;;;8.15;58.66
68137;BME280;54939;50.826;9.030;2022-11-20T01:17:06;98233.19;;;8.17;58.99
68137;BME280;54939;50.826;9.030;2022-11-20T01:17:36;98229.69;;;8.17;58.94
68137;BME280;54939;50.826;9.030;2022-11-20T01:18:06;98229.84;;;8.15;59.38
68137;BME280;54939;50.826;9.030;2022-11-20T01:18:37;98234.34;;;8.15;59.50
68137;BME280;54939;50.826;9.030;2022-11-20T01:19:12;98228.19;;;8.14;58.90
68137;BME280;54939;50.826;9.030;2022-11-20T01:19:43;98231.13;;;8.11;59.19
68137;BME280;54939;50.826;9.030;2022-11-20T01:20:14;98232.09;;;8.10;58.08
68137;BME280;54939;50.826;9.030;2022-11-20T01:20:44;98221.31;;;8.12;59.07
68137;BME280;54939;50.826;9.030;2022-11-20T01:21:18;98223.16;;;8.11;58.85
68137;BME280;54939;50.826;9.030;2022-11-20T01:21:49;98227.63;;;8.11;59.35
68137;BME280;54939;50.826;9.030;2022-11-20T01:22:20;98222.31;;;8.11;59.21
68137;BME280;54939;50.826;9.030;2022-11-20T01:22:50;98224.13;;;8.10;58.92
68137;BME280;54939;50.826;9.030;2022-11-20T01:23:21;98219.66;;;8.11;58.77
68137;BME280;54939;50.826;9.030;2022-11-20T01:23:51;98219.66;;;8.11;58.80
68137;BME280;54939;50.826;9.030;2022-11-20T01:24:22;98223.47;;;8.08;59.25
68137;BME280;54939;50.826;9.030;2022-11-20T01:24:52;98222.31;;;8.11;58.95
68137;BME280;54939;50.826;9.030;2022-11-20T01:25:22;98221.47;;;8.10;59.41
68137;BME280;54939;50.826;9.030;2022-11-20T01:25:53;98223.16;;;8.11;59.49
68137;BME280;54939;50.826;9.030;2022-11-20T01:26:24;98231.13;;;8.11;59.66
68137;BME280;54939;50.826;9.030;2022-11-20T01:26:55;98218.66;;;8.12;59.33
68137;BME280;54939;50.826;9.030;2022-11-20T01:27:25;98220.34;;;8.13;58.55
68137;BME280;54939;50.826;9.030;2022-11-20T01:27:55;98219.50;;;8.12;58.59
68137;BME280;54939;50.826;9.030;2022-11-20T01:28:25;98224.13;;;8.10;59.27
68137;BME280;54939;50.826;9.030;2022-11-20T01:28:56;98224.97;;;8.11;59.71
68137;BME280;54939;50.826;9.030;2022-11-20T01:29:27;98213.50;;;8.10;59.40
68137;BME280;54939;50.826;9.030;2022-11-20T01:29:57;98221.47;;;8.10;60.10
68137;BME280;54939;50.826;9.030;2022-11-20T01:30:28;98215.31;;;8.10;59.23
68137;BME280;54939;50.826;9.030;2022-11-20T01:30:58;98222.31;;;8.11;58.82
68137;BME280;54939;50.826;9.030;2022-11-20T01:31:32;98218.81;;;8.10;59.16
68137;BME280;54939;50.826;9.030;2022-11-20T01:32:03;98216.16;;;8.10;59.53
68137;BME280;54939;50.826;9.030;2022-11-20T01:32:33;98219.78;;;8.09;59.45
68137;BME280;54939;50.826;9.030;2022-11-20T01:33:03;98216.31;;;8.09;59.26
68137;BME280;54939;50.826;9.030;2022-11-20T01:33:33;98220.94;;;8.07;59.97
68137;BME280;54939;50.826;9.030;2022-11-20T01:34:05;98207.50;;;8.08;59.98
68137;BME280;54939;50.826;9.030;2022-11-20T01:34:35;98217.31;;;8.08;59.01
68137;BME280;54939;50.826;9.030;2022-11-20T01:35:06;98219.00;;;8.09;58.92
68137;BME280;54939;50.826;9.030;2022-11-20T01:35:36;98209.47;;;8.06;58.83
68137;BME280;54939;50.826;9.030;2022-11-20T01:36:07;98212.97;;;8.07;59.22
68137;BME280;54939;50.826;9.030;2022-11-20T01:36:37;98214.78;;;8.06;59.40
68137;BME280;54939;50.826;9.030;2022-11-20T01:37:08;98210.47;;;8.05;59.02
68137;BME280;54939;50.826;9.030;2022-11-20T01:37:38;98214.94;;;8.05;59.29
68137;BME280;54939;50.826;9.030;2022-11-20T01:38:08;98211.16;;;8.07;59.00
68137;BME280;54939;50.826;9.030;2022-11-20T01:38:38;98212.13;;;8.06;59.32
68137;BME280;54939;50.826;9.030;2022-11-20T01:39:16;98214.78;;;8.06;58.93
68137;BME280;54939;50.826;9.030;2022-11-20T01:39:46;98216.63;;;8.06;59.59
68137;BME280;54939;50.826;9.030;2022-11-20T01:40:16;98212.00;;;8.08;58.93
68137;BME280;54939;50.826;9.030;2022-11-20T01:40:53;98217.31;;;8.08;59.42
68137;BME280;54939;50.826;9.030;2022-11-20T01:41:24;98210.47;;;8.05;58.89
68137;BME280;54939;50.826;9.030;2022-11-20T01:42:13;98212.97;;;8.07;58.78
68137;BME280;54939;50.826;9.030;2022-11-20T01:43:12;98219.13;;;8.07;58.97
68137;BME280;54939;50.826;9.030;2022-11-20T01:43:52;98219.00;;;8.09;59.56
68137;BME280;54939;50.826;9.030;2022-11-20T01:46:05;98216.63;;;8.06;59.66
68137;BME280;54939;50.826;9.030;2022-11-20T01:46:36;98213.97;;;8.06;58.73
68137;BME280;54939;50.826;9.030;2022-11-20T01:47:08;98208.63;;;8.06;59.03
68137;BME280;54939;50.826;9.030;2022-11-20T01:47:45;98210.16;;;8.08;58.81
68137;BME280;54939;50.826;9.030;2022-11-20T01:48:17;98222.44;;;8.09;59.22
68137;BME280;54939;50.826;9.030;2022-11-20T01:49:27;98216.47;;;8.07;58.85
68137;BME280;54939;50.826;9.030;2022-11-20T01:50:12;98222.63;;;8.08;59.42
68137;BME280;54939;50.826;9.030;2022-11-20T01:50:44;98219.28;;;8.06;59.47
68137;BME280;54939;50.826;9.030;2022-11-20T01:51:16;98213.97;;;8.06;59.14
68137;BME280;54939;50.826;9.030;2022-11-20T01:51:53;98214.94;;;8.05;59.59
68137;BME280;54939;50.826;9.030;2022-11-20T01:52:39;98208.78;;;8.04;59.63
68137;BME280;54939;50.826;9.030;2022-11-20T01:53:12;98208.63;;;8.06;59.57
68137;BME280;54939;50.826;9.030;2022-11-20T01:53:43;98216.47;;;8.07;59.98
68137;BME280;54939;50.826;9.030;2022-11-20T01:54:15;98206.69;;;8.08;59.87
68137;BME280;54939;50.826;9.030;2022-11-20T01:54:48;98199.53;;;8.08;59.07
68137;BME280;54939;50.826;9.030;2022-11-20T01:55:22;98204.03;;;8.08;59.54
68137;BME280;54939;50.826;9.030;2022-11-20T01:55:53;98210.31;;;8.07;60.07
68137;BME280;54939;50.826;9.030;2022-11-20T01:56:24;98212.13;;;8.06;59.42
68137;BME280;54939;50.826;9.030;2022-11-20T01:56:56;98213.97;;;8.06;59.46
68137;BME280;54939;50.826;9.030;2022-11-20T01:57:28;98202.47;;;8.05;59.64
68137;BME280;54939;50.826;9.030;2022-11-20T01:57:59;98212.28;;;8.05;60.01
68137;BME280;54939;50.826;9.030;2022-11-20T01:58:32;98211.44;;;8.04;59.87
68137;BME280;54939;50.826;9.030;2022-11-20T01:59:04;98207.94;;;8.04;59.63
68137;BME280;54939;50.826;9.030;2022-11-20T01:59:36;98214.25;;;8.03;59.80
68137;BME280;54939;50.826;9.030;2022-11-20T02:00:10;98221.22;;;8.04;60.09
68137;BME280;54939;50.826;9.030;2022-11-20T02:00:41;98209.75;;;8.03;60.19
68137;BME280;54939;50.826;9.030;2022-11-20T02:01:11;98215.06;;;8.03;60.04
68137;BME280;54939;50.826;9.030;2022-11-20T02:01:42;98208.94;;;8.03;60.25
68137;BME280;54939;50.826;9.030;2022-11-20T02:02:12;98213.41;;;8.02;59.40
68137;BME280;54939;50.826;9.030;2022-11-20T02:02:44;98213.25;;;8.04;59.40
68137;BME280;54939;50.826;9.030;2022-11-20T02:03:16;98204.44;;;8.03;60.13
68137;BME280;54939;50.826;9.030;2022-11-20T02:03:47;98212.59;;;8.02;59.44
68137;BME280;54939;50.826;9.030;2022-11-20T02:04:17;98214.41;;;8.01;60.00
68137;BME280;54939;50.826;9.030;2022-11-20T02:04:49;98210.22;;;7.99;59.71
68137;BME280;54939;50.826;9.030;2022-11-20T02:05:35;98206.44;;;8.01;59.94
68137;BME280;54939;50.826;9.030;2022-11-20T02:06:10;98211.75;;;8.01;59.98
68137;BME280;54939;50.826;9.030;2022-11-20T02:07:11;98212.41;;;8.03;59.42
68137;BME280;54939;50.826;9.030;2022-11-20T02:07:42;98215.06;;;8.03;59.30
68137;BME280;54939;50.826;9.030;2022-11-20T02:08:13;98215.06;;;8.03;59.87
68137;BME280;54939;50.826;9.030;2022-11-20T02:08:43;98216.75;;;8.04;59.71
68137;BME280;54939;50.826;9.030;2022-11-20T02:09:13;98212.41;;;8.03;59.46
68137;BME280;54939;50.826;9.030;2022-11-20T02:09:43;98218.72;;;8.02;60.38
68137;BME280;54939;50.826;9.030;2022-11-20T02:10:14;98210.09;;;8.00;60.08
68137;BME280;54939;50.826;9.030;2022-11-20T02:10:44;98212.75;;;8.00;59.91
68137;BME280;54939;50.826;9.030;2022-11-20T02:11:14;98221.69;;;7.99;60.13
68137;BME280;54939;50.826;9.030;2022-11-20T02:11:44;98224.34;;;7.99;60.37
68137;BME280;54939;50.826;9.030;2022-11-20T02:12:15;98223.66;;;7.97;59.52
68137;BME280;54939;50.826;9.030;2022-11-20T02:13:03;98219.19;;;7.98;59.29
68137;BME280;54939;50.826;9.030;2022-11-20T02:13:52;98220.84;;;7.99;59.74
68137;BME280;54939;50.826;9.030;2022-11-20T02:14:23;98226.16;;;7.99;60.07
68137;BME280;54939;50.826;9.030;2022-11-20T02:14:53;98223.66;;;7.97;60.31
68137;BME280;54939;50.826;9.030;2022-11-20T02:15:24;98220.84;;;7.99;59.38
68137;BME280;54939;50.826;9.030;2022-11-20T02:15:54;98212.88;;;7.99;59.14
68137;BME280;54939;50.826;9.030;2022-11-20T02:16:54;98219.88;;;8.00;59.81
68137;BME280;54939;50.826;9.030;2022-11-20T02:17:25;98220.41;;;8.03;59.45
68137;BME280;54939;50.826;9.030;2022-11-20T02:17:55;98212.59;;;8.02;59.61
68137;BME280;54939;50.826;9.030;2022-11-20T02:18:26;98218.72;;;8.02;59.40
68137;BME280;54939;50.826;9.030;2022-11-20T02:18:57;98216.22;;;8.01;60.39
68137;BME280;54939;50.826;9.030;2022-11-20T02:19:29;98213.72;;;7.99;59.78
68137;BME280;54939;50.826;9.030;2022-11-20T02:20:00;98208.41;;;7.99;59.47
68137;BME280;54939;50.826;9.030;2022-11-20T02:20:30;98222.53;;;8.00;59.96
68137;BME280;54939;50.826;9.030;2022-11-20T02:21:24;98212.03;;;7.98;60.21
68137;BME280;54939;50.826;9.030;2022-11-20T02:22:32;98216.66;;;7.96;60.22
68137;BME280;54939;50.826;9.030;2022-11-20T02:23:38;98207.84;;;7.96;60.26
68137;BME280;54939;50.826;9.030;2022-11-20T02:24:39;98223.50;;;7.99;59.87
68137;BME280;54939;50.826;9.030;2022-11-20T02:25:09;98221.84;;;7.98;59.29
68137;BME280;54939;50.826;9.030;2022-11-20T02:25:40;98213.72;;;7.99;59.90
68137;BME280;54939;50.826;9.030;2022-11-20T02:26:12;98219.19;;;7.98;60.24
68137;BME280;54939;50.826;9.030;2022-11-20T02:26:46;98224.34;;;7.99;60.15
68137;BME280;54939;50.826;9.030;2022-11-20T02:27:18;98227.00;;;7.99;59.76
68137;BME280;54939;50.826;9.030;2022-11-20T02:27:48;98223.50;;;7.99;60.35
68137;BME280;54939;50.826;9.030;2022-11-20T02:28:18;98223.38;;;8.00;59.88
68137;BME280;54939;50.826;9.030;2022-11-20T02:28:48;98210.09;;;8.00;59.96
68137;BME280;54939;50.826;9.030;2022-11-20T02:29:23;98215.69;;;7.97;59.87
68137;BME280;54939;50.826;9.030;2022-11-20T02:30:02;98217.34;;;7.98;59.90
68137;BME280;54939;50.826;9.030;2022-11-20T02:30:33;98207.72;;;7.97;59.83
68137;BME280;54939;50.826;9.030;2022-11-20T02:31:03;98215.81;;;7.96;59.71
68137;BME280;54939;50.826;9.030;2022-11-20T02:31:35;98210.69;;;7.94;59.66
68137;BME280;54939;50.826;9.030;2022-11-20T02:32:06;98215.00;;;7.95;59.43
68137;BME280;54939;50.826;9.030;2022-11-20T02:32:36;98212.88;;;7.99;59.50
68137;BME280;54939;50.826;9.030;2022-11-20T02:33:06;98206.72;;;7.98;60.11
68137;BME280;54939;50.826;9.030;2022-11-20T02:33:36;98210.38;;;7.97;60.02
68137;BME280;54939;50.826;9.030;2022-11-20T02:34:07;98210.50;;;7.96;60.35
68137;BME280;54939;50.826;9.030;2022-11-20T02:34:37;98207.03;;;7.95;60.71
68137;BME280;54939;50.826;9.030;2022-11-20T02:35:49;98218.34;;;7.97;60.19
68137;BME280;54939;50.826;9.030;2022-11-20T02:36:19;98213.16;;;7.96;59.91
68137;BME280;54939;50.826;9.030;2022-11-20T02:36:50;98215.81;;;7.96;60.06
68137;BME280;54939;50.826;9.030;2022-11-20T02:37:22;98202.53;;;7.96;60.47
68137;BME280;54939;50.826;9.030;2022-11-20T02:37:53;98215.00;;;7.95;60.34
68137;BME280;54939;50.826;9.030;2022-11-20T02:38:24;98206.03;;;7.96;60.22
68137;BME280;54939;50.826;9.030;2022-11-20T02:38:54;98212.34;;;7.95;59.87
68137;BME280;54939;50.826;9.030;2022-11-20T02:39:25;98218.47;;;7.96;59.79
68137;BME280;54939;50.826;9.030;2022-11-20T02:39:57;98213.16;;;7.96;59.64
68137;BME280;54939;50.826;9.030;2022-11-20T02:40:27;98217.50;;;7.97;60.64
68137;BME280;54939;50.826;9.030;2022-11-20T02:40:57;98207.84;;;7.96;60.26
68137;BME280;54939;50.826;9.030;2022-11-20T02:41:34;98203.38;;;7.96;59.91
68137;BME280;54939;50.826;9.030;2022-11-20T02:42:05;98204.22;;;7.97;60.31
68137;BME280;54939;50.826;9.030;2022-11-20T02:42:35;98200.72;;;7.96;59.89
68137;BME280;54939;50.826;9.030;2022-11-20T02:43:06;98213.16;;;7.96;60.31
68137;BME280;54939;50.826;9.030;2022-11-20T02:43:36;98206.19;;;7.95;59.55
68137;BME280;54939;50.826;9.030;2022-11-20T02:44:06;98203.38;;;7.96;60.25
68137;BME280;54939;50.826;9.030;2022-11-20T02:44:37;98203.38;;;7.96;60.47
68137;BME280;54939;50.826;9.030;2022-11-20T02:45:07;98199.72;;;7.97;59.90
68137;BME280;54939;50.826;9.030;2022-11-20T02:45:37;98198.91;;;7.97;59.94
68137;BME280;54939;50.826;9.030;2022-11-20T02:46:08;98195.25;;;7.98;60.16
68137;BME280;54939;50.826;9.030;2022-11-20T02:46:38;98195.41;;;7.96;59.80
68137;BME280;54939;50.826;9.030;2022-11-20T02:47:08;98195.41;;;7.96;60.60
68137;BME280;54939;50.826;9.030;2022-11-20T02:47:38;98196.41;;;7.95;60.12
68137;BME280;54939;50.826;9.030;2022-11-20T02:48:08;98189.25;;;7.96;60.73
68137;BME280;54939;50.826;9.030;2022-11-20T02:48:39;98191.09;;;7.95;59.97
68137;BME280;54939;50.826;9.030;2022-11-20T02:49:09;98187.75;;;7.93;60.52
68137;BME280;54939;50.826;9.030;2022-11-20T02:49:39;98188.59;;;7.94;60.76
68137;BME280;54939;50.826;9.030;2022-11-20T02:50:09;98186.75;;;7.94;59.93
68137;BME280;54939;50.826;9.030;2022-11-20T02:50:40;98188.59;;;7.94;60.46
68137;BME280;54939;50.826;9.030;2022-11-20T02:51:10;98187.75;;;7.93;59.94
68137;BME280;54939;50.826;9.030;2022-11-20T02:51:40;98183.28;;;7.94;60.57
68137;BME280;54939;50.826;9.030;2022-11-20T02:52:10;98182.44;;;7.93;60.02
68137;BME280;54939;50.826;9.030;2022-11-20T02:52:40;98181.44;;;7.94;59.76
68137;BME280;54939;50.826;9.030;2022-11-20T02:53:11;98172.63;;;7.94;59.30
68137;BME280;54939;50.826;9.030;2022-11-20T02:53:41;98171.66;;;7.95;60.26
68137;BME280;54939;50.826;9.030;2022-11-20T02:54:11;98168.16;;;7.94;60.14
68137;BME280;54939;50.826;9.030;2022-11-20T02:54:41;98168.16;;;7.94;59.68
68137;BME280;54939;50.826;9.030;2022-11-20T02:55:11;98171.66;;;7.95;59.77